createdAt,value
2018-04-18T00:02:25.044Z,24.20
2018-04-18T00:04:52.506Z,24.20
2018-04-18T00:07:19.947Z,24.20
2018-04-18T00:09:47.418Z,24.30
2018-04-18T00:12:14.872Z,24.20
2018-04-18T00:14:42.329Z,24.30
2018-04-18T00:17:09.778Z,24.20
2018-04-18T00:19:37.244Z,24.20
2018-04-18T00:22:04.698Z,24.20
2018-04-18T00:24:32.201Z,24.20
2018-04-18T00:26:59.621Z,23.90
2018-04-18T00:29:27.088Z,23.80
2018-04-18T00:31:54.564Z,23.70
2018-04-18T00:34:22.796Z,23.50
2018-04-18T00:36:50.254Z,23.50
2018-04-18T00:39:17.724Z,23.40
2018-04-18T00:41:45.177Z,23.20
2018-04-18T00:44:12.636Z,23.20
2018-04-18T00:46:40.092Z,23.10
2018-04-18T00:49:07.545Z,23.00
2018-04-18T00:51:35.004Z,22.80
2018-04-18T00:54:02.461Z,22.80
2018-04-18T00:56:29.921Z,22.70
2018-04-18T00:58:57.375Z,22.70
2018-04-18T01:01:24.833Z,22.60
2018-04-18T01:03:52.285Z,22.60
2018-04-18T01:06:19.752Z,22.50
2018-04-18T01:08:47.222Z,22.50
2018-04-18T01:11:14.676Z,22.40
2018-04-18T01:13:42.132Z,22.30
2018-04-18T01:16:09.583Z,22.30
2018-04-18T01:18:37.036Z,22.20
2018-04-18T01:21:05.305Z,22.10
2018-04-18T01:23:32.769Z,22.10
2018-04-18T01:26:00.224Z,22.00
2018-04-18T01:28:27.681Z,22.10
2018-04-18T01:30:55.197Z,22.00
2018-04-18T01:33:22.680Z,22.00
2018-04-18T01:35:50.136Z,21.90
2018-04-18T01:38:17.591Z,21.90
2018-04-18T01:40:45.065Z,21.80
2018-04-18T01:43:12.529Z,21.70
2018-04-18T01:45:40.747Z,21.70
2018-04-18T01:48:08.965Z,21.60
2018-04-18T01:50:36.420Z,21.60
2018-04-18T01:53:03.869Z,21.60
2018-04-18T01:55:31.324Z,21.60
2018-04-18T01:57:58.780Z,21.60
2018-04-18T02:00:26.236Z,21.50
2018-04-18T02:02:53.679Z,21.50
2018-04-18T02:05:21.136Z,21.40
2018-04-18T02:07:48.588Z,21.40
2018-04-18T02:10:16.048Z,21.40
2018-04-18T02:12:43.491Z,21.40
2018-04-18T02:15:11.718Z,21.40
2018-04-18T02:17:39.164Z,21.40
2018-04-18T02:20:06.616Z,21.30
2018-04-18T02:22:34.073Z,21.20
2018-04-18T02:25:01.527Z,21.20
2018-04-18T02:27:28.974Z,21.20
2018-04-18T02:29:56.423Z,21.10
2018-04-18T02:32:23.884Z,21.10
2018-04-18T02:34:51.341Z,21.10
2018-04-18T02:37:18.789Z,21.00
2018-04-18T02:39:47.027Z,21.00
2018-04-18T02:42:14.483Z,20.90
2018-04-18T02:44:41.931Z,20.90
2018-04-18T02:47:09.394Z,20.90
2018-04-18T02:49:37.607Z,20.90
2018-04-18T02:52:05.852Z,20.80
2018-04-18T02:54:33.308Z,20.70
2018-04-18T02:57:00.765Z,20.80
2018-04-18T02:59:28.209Z,20.80
2018-04-18T03:01:55.670Z,20.70
2018-04-18T03:04:23.131Z,20.60
2018-04-18T03:06:50.646Z,20.60
2018-04-18T03:09:18.079Z,20.60
2018-04-18T03:11:45.540Z,20.50
2018-04-18T03:14:13.796Z,20.60
2018-04-18T03:16:41.248Z,20.50
2018-04-18T03:19:08.705Z,20.50
2018-04-18T03:21:36.155Z,20.50
2018-04-18T03:24:03.596Z,20.50
2018-04-18T03:26:31.074Z,20.40
2018-04-18T03:28:58.508Z,20.40
2018-04-18T03:31:25.972Z,20.30
2018-04-18T03:33:53.440Z,20.30
2018-04-18T03:36:20.913Z,20.30
2018-04-18T03:38:48.371Z,20.30
2018-04-18T03:41:15.833Z,20.20
2018-04-18T03:43:44.056Z,20.20
2018-04-18T03:46:11.523Z,20.20
2018-04-18T03:48:38.978Z,20.20
2018-04-18T03:51:06.436Z,20.10
2018-04-18T03:53:33.891Z,20.10
2018-04-18T03:56:01.356Z,20.10
2018-04-18T03:58:28.804Z,20.00
2018-04-18T04:00:56.276Z,20.00
2018-04-18T04:03:23.725Z,20.00
2018-04-18T04:05:51.188Z,19.90
2018-04-18T04:08:18.640Z,19.90
2018-04-18T04:10:46.096Z,19.90
2018-04-18T04:13:13.543Z,19.90
2018-04-18T04:15:41.004Z,19.90
2018-04-18T04:18:20.952Z,19.80
2018-04-18T04:21:00.227Z,19.80
2018-04-18T04:23:39.476Z,19.80
2018-04-18T04:26:07.699Z,19.70
2018-04-18T04:28:35.150Z,19.70
2018-04-18T04:31:02.615Z,19.70
2018-04-18T04:33:30.827Z,19.70
2018-04-18T04:35:58.292Z,19.60
2018-04-18T04:38:25.745Z,19.70
2018-04-18T04:40:53.188Z,19.70
2018-04-18T04:43:20.639Z,19.70
2018-04-18T04:45:48.132Z,19.70
2018-04-18T04:48:16.360Z,19.70
2018-04-18T04:50:43.812Z,19.60
2018-04-18T04:53:11.277Z,19.60
2018-04-18T04:55:38.722Z,19.70
2018-04-18T04:58:06.176Z,19.60
2018-04-18T05:00:33.620Z,19.60
2018-04-18T05:03:01.088Z,19.60
2018-04-18T05:05:28.532Z,19.60
2018-04-18T05:07:56.021Z,19.60
2018-04-18T05:10:23.536Z,19.60
2018-04-18T05:12:50.946Z,19.60
2018-04-18T05:15:18.392Z,19.50
2018-04-18T05:17:45.853Z,19.50
2018-04-18T05:20:13.308Z,19.60
2018-04-18T05:22:40.764Z,19.60
2018-04-18T05:25:08.228Z,19.60
2018-04-18T05:27:35.692Z,19.60
2018-04-18T05:30:03.147Z,19.60
2018-04-18T05:32:30.601Z,19.60
2018-04-18T05:34:58.048Z,19.60
2018-04-18T05:37:25.508Z,19.60
2018-04-18T05:39:52.959Z,19.70
2018-04-18T05:42:20.414Z,19.70
2018-04-18T05:44:47.857Z,19.70
2018-04-18T05:47:15.327Z,19.70
2018-04-18T05:49:42.767Z,19.70
2018-04-18T05:52:10.253Z,19.70
2018-04-18T05:54:37.700Z,19.80
2018-04-18T05:57:05.185Z,19.80
2018-04-18T05:59:32.626Z,19.70
2018-04-18T06:02:00.097Z,19.70
2018-04-18T06:04:27.564Z,19.70
2018-04-18T06:06:55.024Z,19.80
2018-04-18T06:09:22.547Z,19.80
2018-04-18T06:11:50.006Z,19.80
2018-04-18T06:14:17.444Z,19.80
2018-04-18T06:16:45.663Z,19.80
2018-04-18T06:19:13.184Z,19.80
2018-04-18T06:21:40.567Z,19.80
2018-04-18T06:24:08.022Z,19.90
2018-04-18T06:26:35.466Z,19.90
2018-04-18T06:29:02.935Z,19.90
2018-04-18T06:31:30.383Z,19.90
2018-04-18T06:33:57.831Z,19.90
2018-04-18T06:36:25.311Z,20.00
2018-04-18T06:38:52.771Z,20.00
2018-04-18T06:41:20.219Z,20.00
2018-04-18T06:43:47.685Z,20.00
2018-04-18T06:46:15.134Z,20.10
2018-04-18T06:48:42.584Z,20.20
2018-04-18T06:51:10.035Z,20.30
2018-04-18T06:53:37.499Z,20.30
2018-04-18T06:56:04.964Z,20.20
2018-04-18T06:58:32.436Z,20.30
2018-04-18T07:00:59.883Z,20.50
2018-04-18T07:03:28.125Z,20.70
2018-04-18T07:05:55.586Z,20.70
2018-04-18T07:08:23.040Z,20.80
2018-04-18T07:10:50.485Z,21.00
2018-04-18T07:13:18.699Z,21.30
2018-04-18T07:15:46.151Z,21.30
2018-04-18T07:18:13.604Z,21.50
2018-04-18T07:20:41.780Z,21.70
2018-04-18T07:23:09.238Z,21.80
2018-04-18T07:25:36.707Z,21.90
2018-04-18T07:28:04.163Z,22.00
2018-04-18T07:30:31.775Z,22.10
2018-04-18T07:32:59.992Z,22.50
2018-04-18T07:35:27.443Z,22.50
2018-04-18T07:37:54.899Z,22.60
2018-04-18T07:40:22.343Z,22.80
2018-04-18T07:42:49.795Z,23.00
2018-04-18T07:45:17.243Z,23.20
2018-04-18T07:47:45.475Z,23.60
2018-04-18T07:50:12.924Z,23.60
2018-04-18T07:52:40.359Z,23.70
2018-04-18T07:55:07.827Z,23.90
2018-04-18T07:57:35.275Z,24.10
2018-04-18T08:00:02.780Z,24.20
2018-04-18T08:02:30.215Z,24.50
2018-04-18T08:04:57.670Z,24.60
2018-04-18T08:07:25.118Z,24.80
2018-04-18T08:09:52.588Z,25.00
2018-04-18T08:12:20.040Z,25.20
2018-04-18T08:14:47.496Z,25.30
2018-04-18T08:17:14.940Z,25.50
2018-04-18T08:19:42.392Z,25.70
2018-04-18T08:22:09.836Z,25.90
2018-04-18T08:24:37.310Z,26.00
2018-04-18T08:27:04.763Z,26.20
2018-04-18T08:29:32.220Z,26.30
2018-04-18T08:31:59.679Z,26.50
2018-04-18T08:34:27.902Z,26.90
2018-04-18T08:36:55.344Z,26.90
2018-04-18T08:39:22.801Z,27.00
2018-04-18T08:41:50.251Z,27.20
2018-04-18T08:44:17.701Z,27.40
2018-04-18T08:46:45.139Z,27.60
2018-04-18T08:49:12.595Z,27.90
2018-04-18T08:51:40.045Z,28.10
2018-04-18T08:54:07.525Z,28.30
2018-04-18T08:56:34.975Z,28.60
2018-04-18T08:59:02.427Z,28.90
2018-04-18T09:01:29.877Z,29.10
2018-04-18T09:03:57.328Z,29.30
2018-04-18T09:06:24.799Z,29.50
2018-04-18T09:08:52.260Z,29.70
2018-04-18T09:11:19.696Z,30.00
2018-04-18T09:13:47.148Z,30.10
2018-04-18T09:16:14.622Z,30.40
2018-04-18T09:18:42.079Z,30.50
2018-04-18T09:21:09.520Z,30.70
2018-04-18T09:23:36.985Z,30.90
2018-04-18T09:26:04.429Z,31.10
2018-04-18T09:28:32.688Z,31.50
2018-04-18T09:31:00.100Z,31.50
2018-04-18T09:33:27.552Z,31.60
2018-04-18T09:35:55.008Z,31.90
2018-04-18T09:38:23.215Z,32.40
2018-04-18T09:40:50.676Z,32.40
2018-04-18T09:43:18.115Z,32.60
2018-04-18T09:45:45.574Z,32.90
2018-04-18T09:48:13.027Z,33.20
2018-04-18T09:50:40.485Z,33.40
2018-04-18T09:53:07.931Z,33.60
2018-04-18T09:55:35.403Z,33.80
2018-04-18T09:58:02.855Z,34.00
2018-04-18T10:03:29.912Z,34.30
2018-04-18T10:05:57.368Z,34.40
2018-04-18T10:08:24.824Z,34.70
2018-04-18T10:10:52.279Z,35.00
2018-04-18T10:13:20.503Z,35.30
2018-04-18T10:15:47.949Z,35.20
2018-04-18T10:18:15.400Z,35.40
2018-04-18T10:20:42.853Z,35.70
2018-04-18T10:23:10.299Z,35.90
2018-04-18T10:25:37.757Z,36.20
2018-04-18T10:28:05.222Z,36.40
2018-04-18T10:30:32.671Z,36.60
2018-04-18T10:33:00.118Z,36.90
2018-04-18T10:35:27.571Z,37.00
2018-04-18T10:37:55.029Z,37.10
2018-04-18T10:40:22.512Z,37.50
2018-04-18T10:42:49.956Z,37.70
2018-04-18T10:45:17.409Z,37.80
2018-04-18T10:47:44.856Z,38.00
2018-04-18T10:50:12.319Z,38.30
2018-04-18T10:52:39.778Z,38.40
2018-04-18T10:55:07.240Z,38.60
2018-04-18T10:57:34.688Z,38.70
2018-04-18T11:00:02.147Z,39.10
2018-04-18T11:02:29.600Z,39.20
2018-04-18T11:04:57.065Z,39.40
2018-04-18T11:07:24.517Z,39.80
2018-04-18T11:09:51.980Z,40.30
2018-04-18T11:12:19.442Z,40.80
2018-04-18T11:14:46.890Z,41.70
2018-04-18T11:17:14.346Z,42.90
2018-04-18T11:19:41.795Z,44.70
2018-04-18T11:22:09.247Z,47.00
2018-04-18T11:24:36.728Z,49.00
2018-04-18T11:27:04.177Z,50.00
2018-04-18T11:29:31.632Z,50.50
2018-04-18T11:31:59.088Z,51.00
2018-04-18T11:34:26.546Z,51.30
2018-04-18T11:36:54.003Z,51.20
2018-04-18T11:39:21.453Z,51.40
2018-04-18T11:41:48.902Z,51.40
2018-04-18T11:44:16.356Z,51.50
2018-04-18T11:46:43.821Z,51.70
2018-04-18T11:49:11.272Z,52.30
2018-04-18T11:51:38.725Z,52.30
2018-04-18T11:54:06.944Z,53.20
2018-04-18T11:56:34.391Z,53.10
2018-04-18T11:59:02.595Z,53.10
2018-04-18T12:01:30.084Z,53.10
2018-04-18T12:03:58.299Z,53.00
2018-04-18T12:06:25.752Z,53.00
2018-04-18T12:08:53.213Z,53.20
2018-04-18T12:11:20.659Z,53.40
2018-04-18T12:13:48.116Z,53.50
2018-04-18T12:16:16.328Z,53.40
2018-04-18T12:18:43.795Z,53.40
2018-04-18T12:21:11.236Z,53.40
2018-04-18T12:23:38.716Z,52.80
2018-04-18T12:26:06.175Z,52.60
2018-04-18T12:28:33.620Z,53.20
2018-04-18T12:31:01.075Z,54.00
2018-04-18T12:33:28.520Z,54.20
2018-04-18T12:35:55.968Z,54.80
2018-04-18T12:38:23.430Z,55.40
2018-04-18T12:40:50.886Z,55.60
2018-04-18T12:43:18.333Z,55.50
2018-04-18T12:45:46.555Z,54.70
2018-04-18T12:48:14.794Z,54.80
2018-04-18T12:50:42.276Z,54.80
2018-04-18T12:53:09.720Z,54.50
2018-04-18T12:55:37.959Z,54.10
2018-04-18T12:58:05.393Z,54.10
2018-04-18T13:00:32.845Z,53.20
2018-04-18T13:03:01.064Z,52.40
2018-04-18T13:05:28.519Z,52.40
2018-04-18T13:07:55.970Z,52.70
2018-04-18T13:10:23.428Z,52.90
2018-04-18T13:12:50.891Z,53.70
2018-04-18T13:15:18.353Z,54.00
2018-04-18T13:17:45.804Z,54.50
2018-04-18T13:20:13.265Z,54.90
2018-04-18T13:22:40.723Z,55.00
2018-04-18T13:25:08.174Z,55.40
2018-04-18T13:27:35.630Z,55.30
2018-04-18T13:30:03.093Z,55.70
2018-04-18T13:32:30.543Z,55.70
2018-04-18T13:34:58.760Z,56.20
2018-04-18T13:37:26.215Z,56.20
2018-04-18T13:39:53.664Z,56.70
2018-04-18T13:42:21.121Z,56.90
2018-04-18T13:44:48.577Z,56.90
2018-04-18T13:47:16.036Z,57.00
2018-04-18T13:49:43.488Z,57.30
2018-04-18T13:52:10.937Z,57.10
2018-04-18T13:54:38.379Z,57.40
2018-04-18T13:57:05.864Z,57.30
2018-04-18T13:59:33.300Z,57.40
2018-04-18T14:02:00.755Z,57.00
2018-04-18T14:04:28.202Z,57.10
2018-04-18T14:06:55.663Z,56.90
2018-04-18T14:09:23.108Z,56.50
2018-04-18T14:11:50.554Z,56.40
2018-04-18T14:14:17.999Z,56.30
2018-04-18T14:16:46.232Z,55.70
2018-04-18T14:19:13.688Z,55.70
2018-04-18T14:21:41.148Z,55.30
2018-04-18T14:24:08.595Z,54.80
2018-04-18T14:26:36.072Z,53.50
2018-04-18T14:29:04.271Z,51.00
2018-04-18T14:31:31.727Z,50.90
2018-04-18T14:33:59.167Z,50.20
2018-04-18T14:36:26.636Z,49.40
2018-04-18T14:38:54.092Z,48.80
2018-04-18T14:41:21.551Z,48.30
2018-04-18T14:43:49.000Z,47.80
2018-04-18T14:46:16.471Z,47.40
2018-04-18T14:48:43.925Z,47.30
2018-04-18T14:51:11.372Z,47.80
2018-04-18T14:53:38.832Z,48.60
2018-04-18T14:56:06.271Z,49.00
2018-04-18T14:58:33.731Z,49.20
2018-04-18T15:01:01.171Z,49.20
2018-04-18T15:03:28.675Z,49.30
2018-04-18T15:05:56.134Z,49.20
2018-04-18T15:08:23.584Z,49.10
2018-04-18T15:10:51.043Z,48.80
2018-04-18T15:13:18.491Z,48.60
2018-04-18T15:15:45.936Z,48.20
2018-04-18T15:18:13.388Z,47.90
2018-04-18T15:20:40.836Z,47.50
2018-04-18T15:23:08.302Z,47.00
2018-04-18T15:25:35.748Z,46.60
2018-04-18T15:28:03.202Z,45.60
2018-04-18T15:30:30.651Z,44.60
2018-04-18T15:32:58.109Z,43.70
2018-04-18T15:35:25.551Z,43.00
2018-04-18T15:37:53.004Z,42.30
2018-04-18T15:40:20.452Z,41.60
2018-04-18T15:42:48.668Z,40.40
2018-04-18T15:45:16.119Z,40.40
2018-04-18T15:47:44.345Z,39.50
2018-04-18T15:50:11.789Z,39.40
2018-04-18T15:52:39.259Z,39.10
2018-04-18T15:55:06.697Z,38.70
2018-04-18T15:57:34.153Z,38.40
2018-04-18T16:00:01.601Z,38.20
2018-04-18T16:02:29.079Z,37.90
2018-04-18T16:04:57.287Z,37.60
2018-04-18T16:07:24.749Z,37.50
2018-04-18T16:09:52.196Z,37.40
2018-04-18T16:12:20.415Z,37.10
2018-04-18T16:14:47.912Z,37.00
2018-04-18T16:17:15.383Z,36.90
2018-04-18T16:19:42.847Z,36.80
2018-04-18T16:22:11.069Z,36.40
2018-04-18T16:24:38.512Z,36.40
2018-04-18T16:27:05.965Z,36.30
2018-04-18T16:29:43.273Z,36.10
2018-04-18T16:32:10.740Z,35.90
2018-04-18T16:34:38.196Z,35.80
2018-04-18T16:37:05.664Z,35.70
2018-04-18T16:39:33.123Z,35.60
2018-04-18T16:42:00.567Z,35.40
2018-04-18T16:44:28.020Z,35.30
2018-04-18T16:46:55.467Z,35.20
2018-04-18T16:49:22.940Z,35.00
2018-04-18T16:51:50.400Z,34.90
2018-04-18T16:54:17.856Z,34.80
2018-04-18T16:56:45.292Z,34.70
2018-04-18T16:59:12.749Z,34.60
2018-04-18T17:01:40.268Z,34.50
2018-04-18T17:04:07.768Z,34.40
2018-04-18T17:06:35.318Z,34.30
2018-04-18T17:09:02.721Z,34.20
2018-04-18T17:11:30.187Z,34.10
2018-04-18T17:13:58.445Z,34.00
2018-04-18T17:16:25.903Z,34.00
2018-04-18T17:18:53.383Z,33.90
2018-04-18T17:21:21.624Z,33.70
2018-04-18T17:23:49.130Z,33.60
2018-04-18T17:26:18.072Z,32.70
2018-04-18T17:28:45.521Z,32.60
2018-04-18T17:31:12.976Z,31.90
2018-04-18T17:33:40.621Z,31.30
2018-04-18T17:36:08.313Z,30.90
2018-04-18T17:38:36.770Z,30.10
2018-04-18T17:41:04.235Z,30.10
2018-04-18T17:43:31.698Z,29.80
2018-04-18T17:45:59.180Z,29.60
2018-04-18T17:48:26.640Z,29.40
2018-04-18T17:50:54.110Z,29.00
2018-04-18T17:53:21.564Z,28.90
2018-04-18T17:55:49.788Z,28.50
2018-04-18T17:58:17.253Z,28.50
2018-04-18T18:00:45.471Z,28.20
2018-04-18T18:03:12.932Z,28.20
2018-04-18T18:05:40.385Z,28.10
2018-04-18T18:08:07.839Z,28.00
2018-04-18T18:10:35.287Z,27.90
2018-04-18T18:13:02.751Z,27.80
2018-04-18T18:15:30.215Z,27.60
2018-04-18T18:17:57.685Z,27.60
2018-04-18T18:20:25.141Z,27.50
2018-04-18T18:22:53.384Z,27.20
2018-04-18T18:25:20.857Z,27.20
2018-04-18T18:27:48.300Z,27.20
2018-04-18T18:30:15.765Z,27.10
2018-04-18T18:32:43.235Z,26.90
2018-04-18T18:35:10.697Z,26.80
2018-04-18T18:37:38.140Z,26.70
2018-04-18T18:40:05.600Z,26.60
2018-04-18T18:42:33.056Z,26.50
2018-04-18T18:45:00.519Z,26.40
2018-04-18T18:47:28.729Z,26.20
2018-04-18T18:49:56.198Z,26.20
2018-04-18T18:52:23.684Z,26.20
2018-04-18T18:54:51.156Z,26.10
2018-04-18T18:57:18.603Z,25.90
2018-04-18T18:59:46.059Z,25.80
2018-04-18T19:02:13.536Z,25.80
2018-04-18T19:04:41.004Z,25.70
2018-04-18T19:07:08.457Z,25.60
2018-04-18T19:09:35.925Z,25.60
2018-04-18T19:12:03.376Z,25.90
2018-04-18T19:14:30.836Z,26.20
2018-04-18T19:16:58.289Z,26.50
2018-04-18T19:19:25.741Z,26.80
2018-04-18T19:21:53.191Z,26.90
2018-04-18T19:24:20.644Z,27.00
2018-04-18T19:26:48.867Z,27.20
2018-04-18T19:29:16.320Z,27.20
2018-04-18T19:31:43.764Z,27.30
2018-04-18T19:34:11.976Z,27.40
2018-04-18T19:36:39.441Z,27.30
2018-04-18T19:39:06.896Z,27.40
2018-04-18T19:41:34.395Z,27.40
2018-04-18T19:44:01.813Z,27.50
2018-04-18T19:46:29.264Z,27.50
2018-04-18T19:48:56.773Z,27.50
2018-04-18T19:51:24.227Z,27.50
2018-04-18T19:53:51.740Z,27.50
2018-04-18T19:56:19.199Z,27.50
2018-04-18T19:58:46.646Z,27.50
2018-04-18T20:01:14.115Z,27.50
2018-04-18T20:03:41.543Z,27.50
2018-04-18T20:06:08.999Z,27.40
2018-04-18T20:08:37.279Z,27.40
2018-04-18T20:11:05.508Z,27.40
2018-04-18T20:13:32.954Z,27.40
2018-04-18T20:16:00.428Z,27.40
2018-04-18T20:18:27.876Z,27.40
2018-04-18T20:20:56.104Z,27.30
2018-04-18T20:23:23.555Z,27.30
2018-04-18T20:25:51.775Z,27.20
2018-04-18T20:28:19.244Z,27.20
2018-04-18T20:30:46.717Z,27.20
2018-04-18T20:33:14.176Z,27.20
2018-04-18T20:35:41.629Z,27.20
2018-04-18T20:38:09.151Z,27.10
2018-04-18T20:40:36.547Z,27.10
2018-04-18T20:43:04.012Z,27.10
2018-04-18T20:45:31.463Z,27.00
2018-04-18T20:47:58.937Z,27.00
2018-04-18T20:50:30.100Z,26.90
2018-04-18T20:52:58.338Z,26.90
2018-04-18T20:55:26.547Z,26.90
2018-04-18T20:57:54.012Z,26.80
2018-04-18T21:00:21.498Z,26.80
2018-04-18T21:02:49.688Z,26.80
2018-04-18T21:05:17.903Z,26.70
2018-04-18T21:07:46.138Z,26.70
2018-04-18T21:10:13.603Z,26.70
2018-04-18T21:12:41.059Z,26.70
2018-04-18T21:15:08.517Z,26.60
2018-04-18T21:17:36.768Z,26.60
2018-04-18T21:20:04.225Z,26.60
2018-04-18T21:22:31.688Z,26.50
2018-04-18T21:24:59.149Z,26.50
2018-04-18T21:27:26.619Z,26.40
2018-04-18T21:29:54.075Z,26.40
2018-04-18T21:32:22.296Z,26.30
2018-04-18T21:34:50.511Z,26.30
2018-04-18T21:37:17.989Z,26.30
2018-04-18T21:39:45.444Z,26.20
2018-04-18T21:42:12.931Z,26.20
2018-04-18T21:44:41.161Z,26.20
2018-04-18T21:47:08.654Z,26.10
2018-04-18T21:49:36.118Z,26.10
2018-04-18T21:52:03.571Z,26.00
2018-04-18T21:54:31.027Z,26.00
2018-04-18T21:56:58.478Z,26.00
2018-04-18T21:59:25.936Z,25.90
2018-04-18T22:01:53.381Z,25.90
2018-04-18T22:04:20.842Z,25.80
2018-04-18T22:06:49.104Z,25.80
2018-04-18T22:09:16.572Z,25.80
2018-04-18T22:11:44.029Z,25.70
2018-04-18T22:14:11.481Z,25.70
2018-04-18T22:16:38.959Z,25.60
2018-04-18T22:19:06.396Z,25.60
2018-04-18T22:21:33.861Z,25.60
2018-04-18T22:24:01.401Z,25.60
2018-04-18T22:26:28.839Z,25.50
2018-04-18T22:28:56.291Z,25.40
2018-04-18T22:31:23.736Z,25.40
2018-04-18T22:33:51.209Z,25.30
2018-04-18T22:36:18.656Z,25.30
2018-04-18T22:38:46.096Z,25.30
2018-04-18T22:41:14.311Z,25.20
2018-04-18T22:43:41.766Z,25.20
2018-04-18T22:46:09.227Z,25.10
2018-04-18T22:48:36.685Z,25.00
2018-04-18T22:51:04.165Z,24.90
2018-04-18T22:53:31.608Z,24.90
2018-04-18T22:55:59.061Z,24.90
2018-04-18T22:58:26.516Z,24.80
2018-04-18T23:00:53.972Z,24.80
2018-04-18T23:03:21.416Z,24.70
2018-04-18T23:05:48.870Z,24.70
2018-04-18T23:08:16.316Z,24.60
2018-04-18T23:10:44.546Z,24.60
2018-04-18T23:13:12.002Z,24.50
2018-04-18T23:15:39.464Z,24.50
2018-04-18T23:18:07.675Z,24.50
2018-04-18T23:20:35.909Z,24.50
2018-04-18T23:23:03.363Z,24.50
2018-04-18T23:25:30.816Z,24.40
2018-04-18T23:27:58.268Z,24.40
2018-04-18T23:30:25.864Z,24.30
2018-04-18T23:32:53.337Z,24.30
2018-04-18T23:35:20.780Z,24.30
2018-04-18T23:37:48.224Z,24.30
2018-04-18T23:40:15.679Z,24.30
2018-04-18T23:42:43.170Z,24.20
2018-04-18T23:45:11.355Z,24.20
2018-04-18T23:47:39.565Z,24.20
2018-04-18T23:50:07.007Z,24.10
2018-04-18T23:52:34.465Z,24.10
